Sant Cugat del Valles, Spain
Current Conditions -  °F | °C
As of 1:00 PM on Monday 20 Oct 2014 (Local Time) from LELL Reporting Station
Clear Clear  
Wind Chill: 79°   Ceiling: Unl
Heat Index: 80°   Visibility: 6mi
Dew Point: 59°   Wind: 6mph
Humidity: 51%   Direction: 240°WSW
Pressure: 30.18"   Gusts: NA
Location:  41.47°N, 2.08°E
Report Text: LELL 201100Z 24005KT 190V300 CAVOK 26/15 Q1022
Loading
Personal Weather Stations






























Interactive Weather Map
Tropical Storm Tracking
New forecast layout! Learn more

10-Day Weather Forecast

Advertisements
Track Severe Weather on mobile